Time;durP1;ratioP1;P1;durP2;ratioP2;P2;SDS_P1;SDS_P2;PMS_P1;PMS_P2;Temp;Humidity;BMP_temperature;BMP_pressure;BME280_temperature;BME280_humidity;BME280_pressure;Samples;Min_cycle;Max_cycle;Signal;HPM_P1;HPM_P2
2021/06/27 00:00:11;;;;;;;8.70;7.22;;;;;;;17.63;73.18;100194.34;5037884;28;20053;-78
2021/06/27 00:02:37;;;;;;;12.43;7.50;;;;;;;17.56;73.56;100189.66;5037964;28;20065;-77
2021/06/27 00:05:07;;;;;;;14.50;7.03;;;;;;;17.46;73.11;100171.59;5038003;28;20126;-77
2021/06/27 00:07:33;;;;;;;9.85;7.50;;;;;;;17.50;73.27;100183.81;5038263;28;20107;-76
2021/06/27 00:10:00;;;;;;;10.82;6.85;;;;;;;17.46;73.66;100177.00;5037827;28;20340;-76
2021/06/27 00:12:27;;;;;;;9.90;7.50;;;;;;;17.44;74.22;100170.03;5036959;28;20119;-76
2021/06/27 00:14:55;;;;;;;11.93;7.80;;;;;;;17.35;74.13;100174.41;5036681;28;20056;-76
2021/06/27 00:17:22;;;;;;;12.43;7.65;;;;;;;17.34;74.43;100181.63;5037088;28;20108;-77
2021/06/27 00:19:49;;;;;;;12.27;7.45;;;;;;;17.27;74.70;100185.03;5031728;28;20060;-76
2021/06/27 00:22:15;;;;;;;9.07;7.25;;;;;;;17.19;74.60;100178.47;5018095;28;20096;-77
2021/06/27 00:24:44;;;;;;;11.65;7.05;;;;;;;17.18;74.98;100175.91;5018266;28;20050;-77
2021/06/27 00:27:11;;;;;;;11.98;7.65;;;;;;;17.23;74.56;100184.44;5018005;28;20053;-77
2021/06/27 00:29:38;;;;;;;11.75;8.07;;;;;;;17.21;74.82;100189.97;5017922;28;20058;-77
2021/06/27 00:32:05;;;;;;;8.70;7.85;;;;;;;17.15;74.82;100181.59;5017729;28;20525;-76
2021/06/27 00:34:32;;;;;;;9.80;7.15;;;;;;;17.09;74.88;100174.88;5000750;28;20054;-76
2021/06/27 00:36:58;;;;;;;10.20;7.53;;;;;;;17.11;75.09;100183.72;5017482;28;20108;-77
2021/06/27 00:39:25;;;;;;;10.07;7.47;;;;;;;17.09;75.00;100174.88;5018231;28;20445;-76
2021/06/27 00:41:52;;;;;;;9.82;7.45;;;;;;;17.06;74.97;100175.16;5018020;28;20513;-77
2021/06/27 00:44:21;;;;;;;9.52;7.97;;;;;;;17.06;75.22;100167.91;5017119;28;20435;-76
2021/06/27 00:46:53;;;;;;;12.27;7.88;;;;;;;17.09;74.97;100169.47;5022532;28;20204;-77
2021/06/27 00:49:20;;;;;;;11.25;7.63;;;;;;;17.07;75.25;100166.06;5025690;28;20049;-75
2021/06/27 00:51:48;;;;;;;10.43;7.60;;;;;;;17.07;75.02;100168.78;5025188;28;20041;-76
2021/06/27 00:54:15;;;;;;;9.18;7.53;;;;;;;17.06;75.08;100167.91;5018322;28;20100;-76
2021/06/27 00:56:45;;;;;;;9.93;7.38;;;;;;;17.06;75.23;100167.91;5018351;28;20057;-76
2021/06/27 00:59:14;;;;;;;8.65;7.60;;;;;;;17.01;75.29;100175.53;5017878;28;20100;-76
2021/06/27 01:01:40;;;;;;;9.90;7.65;;;;;;;16.99;75.36;100176.66;5017595;28;20053;-76
2021/06/27 01:04:07;;;;;;;10.32;8.25;;;;;;;17.02;74.83;100168.31;5017355;28;20077;-75
2021/06/27 01:06:34;;;;;;;9.85;7.70;;;;;;;17.00;74.88;100170.28;5016129;28;20414;-76
2021/06/27 01:09:01;;;;;;;14.55;8.18;;;;;;;16.97;74.94;100166.00;5017477;28;20395;-76
2021/06/27 01:11:28;;;;;;;14.05;8.15;;;;;;;16.91;75.29;100156.63;5016901;28;20049;-76
2021/06/27 01:13:55;;;;;;;10.85;7.85;;;;;;;17.01;75.02;100166.59;5016921;28;20069;-76
2021/06/27 01:16:21;;;;;;;10.77;7.57;;;;;;;16.90;75.35;100154.06;5017057;28;20096;-76
2021/06/27 01:18:53;;;;;;;8.55;7.63;;;;;;;16.90;75.65;100162.16;5017371;28;20077;-76
2021/06/27 01:21:21;;;;;;;12.40;7.55;;;;;;;16.93;75.18;100157.34;5035114;28;20053;-76
2021/06/27 01:23:47;;;;;;;10.73;8.02;;;;;;;16.94;75.04;100164.44;5037170;28;20054;-76
2021/06/27 01:26:14;;;;;;;10.25;7.97;;;;;;;16.92;75.54;100155.63;5036826;28;20129;-76
2021/06/27 01:28:41;;;;;;;9.95;7.72;;;;;;;16.91;75.34;100153.94;5037067;28;20049;-76
2021/06/27 01:31:09;;;;;;;16.00;7.82;;;;;;;17.04;75.05;100158.25;5036099;28;20443;-76
2021/06/27 01:33:36;;;;;;;14.20;8.52;;;;;;;17.07;75.35;100166.94;5035336;28;20046;-77
2021/06/27 01:36:03;;;;;;;12.65;8.40;;;;;;;17.10;75.03;100171.19;5036690;28;20458;-76
2021/06/27 01:38:31;;;;;;;9.65;6.75;;;;;;;17.14;74.91;100175.31;5036675;28;20057;-77
2021/06/27 01:40:58;;;;;;;10.85;7.38;;;;;;;17.19;74.72;100180.31;5035681;28;20127;-76
2021/06/27 01:43:26;;;;;;;10.27;7.63;;;;;;;17.17;74.93;100180.44;5036182;28;20045;-76
2021/06/27 01:46:02;;;;;;;7.93;6.72;;;;;;;17.21;74.84;100178.34;5036183;28;20435;-76
2021/06/27 01:48:34;;;;;;;11.43;8.00;;;;;;;17.17;75.09;100175.03;5036008;28;20053;-78
2021/06/27 01:51:03;;;;;;;7.88;6.95;;;;;;;17.10;74.98;100173.88;5035929;28;20443;-76
2021/06/27 01:53:32;;;;;;;10.95;7.82;;;;;;;17.12;75.45;100180.00;5035895;28;20351;-75
2021/06/27 01:56:18;;;;;;;9.60;7.68;;;;;;;17.09;75.47;100174.88;5035820;28;20489;-75
2021/06/27 01:58:48;;;;;;;11.57;7.65;;;;;;;17.10;75.90;100179.28;5034812;28;20049;-75
2021/06/27 02:01:30;;;;;;;10.20;7.68;;;;;;;17.15;75.35;100185.13;5035823;28;20057;-76
2021/06/27 02:03:57;;;;;;;10.63;7.47;;;;;;;17.12;75.61;100177.31;5035958;28;20107;-77
2021/06/27 02:06:26;;;;;;;8.75;7.60;;;;;;;17.05;75.83;100165.38;5036077;28;20053;-76
2021/06/27 02:08:54;;;;;;;12.52;8.13;;;;;;;17.07;76.29;100166.94;5035839;28;20049;-76
2021/06/27 02:11:23;;;;;;;8.18;7.38;;;;;;;17.11;75.78;100148.66;5035551;28;20049;-76
2021/06/27 02:13:51;;;;;;;9.40;8.13;;;;;;;17.17;75.67;100152.63;5035317;28;20055;-76
2021/06/27 02:16:18;;;;;;;9.32;7.38;;;;;;;17.21;75.18;100146.81;5035777;28;20423;-76
2021/06/27 02:18:50;;;;;;;9.50;7.63;;;;;;;17.28;74.90;100149.84;5034752;28;20049;-76
2021/06/27 02:21:21;;;;;;;10.63;7.80;;;;;;;17.33;74.31;100146.72;5031010;28;20378;-76
2021/06/27 02:23:48;;;;;;;10.30;7.80;;;;;;;17.33;74.48;100146.72;5015590;28;20128;-76
2021/06/27 02:26:16;;;;;;;12.18;8.07;;;;;;;17.43;73.72;100135.94;5015936;28;20100;-76
2021/06/27 02:28:45;;;;;;;8.40;7.55;;;;;;;17.43;73.41;100138.66;5015889;28;20355;-76
2021/06/27 02:31:12;;;;;;;10.00;7.95;;;;;;;17.41;73.44;100129.81;5015510;28;20725;-76
2021/06/27 02:33:39;;;;;;;10.75;7.95;;;;;;;17.45;73.32;100124.03;5015342;28;20052;-76
2021/06/27 02:36:06;;;;;;;11.57;7.97;;;;;;;17.44;73.92;100132.25;5015618;28;20053;-76
2021/06/27 02:38:33;;;;;;;8.80;7.38;;;;;;;17.45;73.65;100129.44;5014718;28;20115;-76
2021/06/27 02:41:00;;;;;;;9.20;8.15;;;;;;;17.49;73.82;100128.13;5015896;28;20103;-77
2021/06/27 02:43:27;;;;;;;8.57;7.63;;;;;;;17.51;73.13;100136.97;5015644;28;20083;-76
2021/06/27 02:45:54;;;;;;;7.53;6.80;;;;;;;17.54;73.22;100129.56;5015366;28;20058;-76
2021/06/27 02:48:21;;;;;;;8.80;7.22;;;;;;;17.51;73.38;100118.06;5015425;28;20066;-75
2021/06/27 02:50:48;;;;;;;9.68;7.20;;;;;;;17.59;73.07;100130.00;5030740;28;20054;-76
2021/06/27 02:53:15;;;;;;;9.60;7.70;;;;;;;17.53;73.52;100130.56;5014317;28;20053;-76
2021/06/27 02:55:42;;;;;;;9.60;6.90;;;;;;;17.56;73.25;100125.75;5014487;28;20050;-77
2021/06/27 02:58:08;;;;;;;12.73;7.57;;;;;;;17.53;73.80;100134.09;5015662;28;20383;-77
2021/06/27 03:00:35;;;;;;;7.97;6.53;;;;;;;17.53;74.12;100135.97;5030933;28;20057;-77
2021/06/27 03:03:03;;;;;;;9.65;7.45;;;;;;;17.58;73.60;100144.47;5015375;28;20081;-76
2021/06/27 03:05:30;;;;;;;12.93;7.35;;;;;;;17.60;73.35;100148.75;5015617;28;20058;-76
2021/06/27 03:07:57;;;;;;;9.13;7.00;;;;;;;17.49;73.72;100140.78;5015147;28;20053;-76
2021/06/27 03:10:24;;;;;;;7.78;6.65;;;;;;;17.58;72.51;100152.56;5015150;28;20378;-76
2021/06/27 03:12:51;;;;;;;8.18;6.32;;;;;;;17.61;72.31;100150.44;5014951;28;20057;-76
2021/06/27 03:15:20;;;;;;;8.05;6.72;;;;;;;17.67;71.49;100145.47;5015237;28;20045;-76
2021/06/27 03:17:47;;;;;;;11.85;7.30;;;;;;;17.61;72.08;100125.31;5015309;28;20108;-76
2021/06/27 03:20:17;;;;;;;9.35;7.20;;;;;;;17.61;72.20;100118.06;5023634;28;20046;-76
2021/06/27 03:22:46;;;;;;;9.70;7.10;;;;;;;17.71;72.24;100125.31;5038219;28;20087;-76
2021/06/27 03:25:14;;;;;;;10.25;7.22;;;;;;;17.80;71.21;100107.44;5038337;28;20053;-76
2021/06/27 03:27:40;;;;;;;10.02;7.88;;;;;;;17.68;71.46;100085.97;5040184;28;20493;-77
2021/06/27 03:30:08;;;;;;;8.70;7.30;;;;;;;17.76;71.40;100096.06;5035097;28;20053;-76
2021/06/27 03:32:36;;;;;;;12.52;7.68;;;;;;;17.73;70.91;100096.34;5034814;28;20046;-76
2021/06/27 03:35:05;;;;;;;9.07;7.57;;;;;;;17.55;71.33;100074.59;5034914;28;20061;-76
2021/06/27 03:37:31;;;;;;;8.07;7.28;;;;;;;17.74;70.56;100098.03;5034983;28;20079;-76
2021/06/27 03:39:58;;;;;;;10.32;7.20;;;;;;;17.70;71.26;100100.16;5034860;28;20046;-76
2021/06/27 03:42:26;;;;;;;9.30;6.60;;;;;;;17.73;70.98;100094.50;5034792;28;20053;-76
2021/06/27 03:44:53;;;;;;;8.85;7.13;;;;;;;17.68;70.33;100095.91;5033778;28;20053;-77
2021/06/27 03:47:20;;;;;;;11.38;7.18;;;;;;;17.74;69.84;100098.03;5033818;28;20053;-77
2021/06/27 03:49:46;;;;;;;10.68;7.70;;;;;;;17.79;69.85;100101.16;5034700;28;20085;-76
2021/06/27 03:52:13;;;;;;;9.95;7.10;;;;;;;17.85;69.26;100103.31;5034633;28;20421;-76
2021/06/27 03:54:40;;;;;;;8.60;6.75;;;;;;;17.88;69.44;100094.91;5035062;28;20351;-77
2021/06/27 03:57:07;;;;;;;8.27;6.97;;;;;;;17.90;69.44;100095.63;5038215;28;20103;-77
2021/06/27 03:59:33;;;;;;;16.00;6.88;;;;;;;17.99;68.43;100099.31;5037229;28;20057;-77
2021/06/27 04:02:00;;;;;;;13.55;6.68;;;;;;;18.00;69.34;100101.03;5038487;28;20057;-77
2021/06/27 04:04:27;;;;;;;8.77;6.85;;;;;;;18.03;68.25;100100.72;5038254;28;20049;-77
2021/06/27 04:06:53;;;;;;;10.18;6.95;;;;;;;18.04;67.32;100082.69;5038013;28;20111;-77
2021/06/27 04:09:20;;;;;;;9.27;6.50;;;;;;;18.10;67.55;100094.78;5037763;28;20339;-77
2021/06/27 04:11:46;;;;;;;8.48;7.18;;;;;;;18.10;68.04;100098.34;5037961;28;20104;-77
2021/06/27 04:14:13;;;;;;;11.38;6.53;;;;;;;18.14;67.37;100091.66;5037626;28;20141;-78
2021/06/27 04:16:40;;;;;;;10.52;7.15;;;;;;;18.18;66.74;100094.91;5038051;28;20053;-77
2021/06/27 04:19:06;;;;;;;10.73;7.20;;;;;;;18.10;66.72;100067.78;5037800;28;20054;-78
2021/06/27 04:21:35;;;;;;;11.35;7.40;;;;;;;18.21;66.34;100086.53;5037747;28;20049;-77
2021/06/27 04:24:01;;;;;;;10.65;7.07;;;;;;;18.15;66.16;100071.72;5037671;28;20057;-77
2021/06/27 04:26:28;;;;;;;10.05;7.50;;;;;;;18.16;66.49;100078.00;5036561;28;20049;-78
2021/06/27 04:28:55;;;;;;;13.25;7.53;;;;;;;18.15;67.01;100082.53;5037793;28;20119;-78
2021/06/27 04:31:21;;;;;;;9.85;7.25;;;;;;;18.09;66.94;100083.13;5036788;28;20054;-78
2021/06/27 04:33:48;;;;;;;10.43;7.30;;;;;;;18.05;67.62;100076.31;5037893;28;20129;-77
2021/06/27 04:36:17;;;;;;;10.75;7.00;;;;;;;18.07;67.22;100076.19;5038037;28;20045;-77
2021/06/27 04:38:44;;;;;;;8.25;6.90;;;;;;;18.03;67.74;100073.72;5037750;28;20053;-77
2021/06/27 04:41:10;;;;;;;9.35;6.68;;;;;;;18.07;66.90;100068.09;5036990;28;20133;-77
2021/06/27 04:43:37;;;;;;;8.25;7.03;;;;;;;18.03;67.19;100068.31;5037584;28;20053;-77
2021/06/27 04:46:04;;;;;;;8.75;6.82;;;;;;;18.07;67.35;100068.91;5036545;28;20095;-77
2021/06/27 04:48:31;;;;;;;8.43;7.20;;;;;;;18.07;67.67;100062.69;5037636;28;20060;-77
2021/06/27 04:50:57;;;;;;;12.27;7.68;;;;;;;18.11;67.66;100064.06;5037704;28;20057;-77
2021/06/27 04:53:24;;;;;;;9.18;7.15;;;;;;;18.12;67.75;100055.84;5037428;28;20050;-77
2021/06/27 04:55:51;;;;;;;9.15;6.63;;;;;;;18.12;67.18;100055.84;5037529;28;20053;-77
2021/06/27 04:58:17;;;;;;;9.10;6.60;;;;;;;18.19;66.94;100047.97;5037542;28;20056;-77
2021/06/27 05:00:45;;;;;;;8.77;6.93;;;;;;;18.24;67.38;100053.81;5037438;28;20442;-77
2021/06/27 05:03:12;;;;;;;8.98;6.57;;;;;;;18.21;67.36;100048.72;5037223;28;20081;-77
2021/06/27 05:05:38;;;;;;;10.90;6.97;;;;;;;18.27;66.83;100049.97;5037072;28;20130;-77
2021/06/27 05:08:05;;;;;;;9.30;6.63;;;;;;;18.36;66.94;100061.75;5036202;28;20045;-77
2021/06/27 05:10:32;;;;;;;9.98;6.43;;;;;;;18.39;67.17;100066.84;5035658;28;20092;-77
2021/06/27 05:12:59;;;;;;;8.90;6.88;;;;;;;18.35;66.92;100050.06;5036730;28;20061;-77
2021/06/27 05:15:26;;;;;;;8.95;7.18;;;;;;;18.42;67.61;100055.75;5036713;28;20131;-77
2021/06/27 05:17:53;;;;;;;10.13;7.30;;;;;;;18.48;67.21;100055.16;5036916;28;20362;-77
2021/06/27 05:20:19;;;;;;;8.77;6.40;;;;;;;18.44;67.62;100043.81;5025944;28;20107;-77
2021/06/27 05:22:46;;;;;;;11.60;7.10;;;;;;;18.57;66.80;100064.22;5016133;28;20124;-77
2021/06/27 05:25:13;;;;;;;12.27;6.90;;;;;;;18.50;66.89;100041.47;5016740;28;20398;-77
2021/06/27 05:27:40;;;;;;;8.77;6.80;;;;;;;18.64;67.52;100059.06;5017049;28;20093;-77
2021/06/27 05:30:08;;;;;;;9.85;6.78;;;;;;;18.75;66.50;100061.59;5015657;28;20049;-77
2021/06/27 05:32:35;;;;;;;13.13;7.28;;;;;;;18.80;67.14;100059.28;5016686;28;20398;-78
2021/06/27 05:35:03;;;;;;;10.48;7.45;;;;;;;18.80;66.06;100053.03;5016719;28;20435;-77
2021/06/27 05:37:29;;;;;;;14.00;7.22;;;;;;;18.86;66.52;100061.38;5017033;28;20108;-77
2021/06/27 05:39:56;;;;;;;9.02;6.80;;;;;;;18.91;66.80;100060.91;5016715;28;20057;-77
2021/06/27 05:42:23;;;;;;;8.35;6.95;;;;;;;18.94;66.56;100065.19;5017173;28;20609;-77
2021/06/27 05:44:49;;;;;;;9.40;6.90;;;;;;;18.95;67.03;100056.09;5017139;28;20049;-77
2021/06/27 05:47:16;;;;;;;9.02;6.88;;;;;;;19.02;67.14;100061.72;5017122;28;20431;-78
2021/06/27 05:49:43;;;;;;;9.00;7.25;;;;;;;19.09;66.49;100055.59;5017311;28;20056;-77
2021/06/27 05:52:10;;;;;;;9.25;7.07;;;;;;;19.05;66.20;100047.91;5015663;28;20050;-77
2021/06/27 05:54:36;;;;;;;7.13;6.25;;;;;;;19.09;67.44;100050.19;5016075;28;20073;-77
2021/06/27 05:57:03;;;;;;;8.85;6.78;;;;;;;19.07;65.62;100049.47;5016607;28;20100;-77
2021/06/27 05:59:30;;;;;;;10.20;6.57;;;;;;;19.07;66.92;100048.66;5021679;28;20050;-77
2021/06/27 06:01:57;;;;;;;8.50;6.55;;;;;;;19.12;66.68;100049.88;5036664;28;20096;-78
2021/06/27 06:04:24;;;;;;;9.60;6.47;;;;;;;19.18;66.15;100056.53;5019612;28;20111;-77
2021/06/27 06:06:51;;;;;;;12.85;6.70;;;;;;;19.21;65.73;100050.81;5018419;28;20096;-77
2021/06/27 06:09:17;;;;;;;8.70;6.22;;;;;;;19.12;65.95;100039.06;5017348;28;20100;-77
2021/06/27 06:11:46;;;;;;;8.82;6.97;;;;;;;19.25;66.49;100051.38;5015364;28;20056;-76
2021/06/27 06:14:13;;;;;;;8.40;6.70;;;;;;;19.21;66.55;100047.25;5014816;28;20058;-76
2021/06/27 06:16:41;;;;;;;12.68;7.35;;;;;;;19.27;65.91;100054.75;5016049;28;20058;-76
2021/06/27 06:19:08;;;;;;;12.55;6.40;;;;;;;19.14;65.94;100028.94;5015948;28;20344;-76
2021/06/27 06:21:34;;;;;;;7.28;6.50;;;;;;;19.35;65.75;100051.28;5035927;28;20115;-76
2021/06/27 06:24:03;;;;;;;8.38;6.60;;;;;;;19.29;65.00;100047.38;5030835;28;20050;-76
2021/06/27 06:26:30;;;;;;;6.90;6.03;;;;;;;19.27;65.84;100044.81;5015935;28;20462;-77
2021/06/27 06:28:57;;;;;;;11.05;6.65;;;;;;;19.32;65.81;100057.88;5018418;28;20100;-77
2021/06/27 06:31:23;;;;;;;11.68;6.85;;;;;;;19.29;66.46;100060.88;5032644;28;20140;-77
2021/06/27 06:33:50;;;;;;;11.77;6.13;;;;;;;19.31;66.78;100053.47;5035651;28;20057;-77
2021/06/27 06:36:17;;;;;;;9.68;6.35;;;;;;;19.32;66.84;100057.00;5034373;28;20053;-77
2021/06/27 06:38:43;;;;;;;8.45;6.15;;;;;;;19.37;67.48;100055.56;5035540;28;20061;-76
2021/06/27 06:41:10;;;;;;;8.07;6.03;;;;;;;19.51;66.46;100059.56;5035240;28;20088;-74
2021/06/27 06:43:37;;;;;;;9.88;6.43;;;;;;;19.59;66.35;100056.09;5028877;28;20073;-73
2021/06/27 06:46:04;;;;;;;7.03;6.30;;;;;;;19.60;66.74;100048.84;5024389;28;20497;-73
2021/06/27 06:48:31;;;;;;;9.15;6.30;;;;;;;19.75;65.42;100051.81;5025805;28;20052;-72
2021/06/27 06:50:57;;;;;;;7.28;6.15;;;;;;;19.79;64.74;100043.22;5024584;28;20103;-75
2021/06/27 06:53:24;;;;;;;7.47;6.13;;;;;;;20.01;64.73;100056.44;5025031;28;20091;-75
2021/06/27 06:55:51;;;;;;;6.57;5.55;;;;;;;20.04;65.46;100048.84;5026790;28;20128;-76
2021/06/27 06:58:21;;;;;;;6.43;5.78;;;;;;;20.12;65.98;100064.34;5008708;28;20052;-76
2021/06/27 07:00:48;;;;;;;7.32;5.93;;;;;;;20.16;65.64;100065.69;5022980;28;20045;-76
2021/06/27 07:03:14;;;;;;;7.05;6.32;;;;;;;20.22;65.73;100056.09;5026986;28;20046;-75
2021/06/27 07:05:41;;;;;;;12.40;5.95;;;;;;;20.29;65.25;100051.75;5031537;28;20051;-76
2021/06/27 07:08:07;;;;;;;5.38;4.82;;;;;;;20.32;64.53;100056.00;5030745;28;20108;-77
2021/06/27 07:10:34;;;;;;;6.72;5.63;;;;;;;20.53;63.60;100054.75;5031303;28;20061;-76
2021/06/27 07:13:02;;;;;;;8.00;5.25;;;;;;;20.55;62.72;100036.44;5026938;28;20049;-76
2021/06/27 07:15:29;;;;;;;8.65;5.55;;;;;;;20.70;63.17;100051.09;5024582;28;20131;-75
2021/06/27 07:17:56;;;;;;;6.38;5.30;;;;;;;20.80;62.83;100056.38;5017322;28;20431;-75
2021/06/27 07:20:23;;;;;;;5.93;5.07;;;;;;;20.86;62.40;100033.22;5024878;28;20054;-76
2021/06/27 07:22:50;;;;;;;6.55;5.55;;;;;;;20.96;62.92;100039.34;5019730;28;20096;-75
2021/06/27 07:25:21;;;;;;;9.07;5.65;;;;;;;21.07;63.26;100048.22;5024925;28;20417;-78
2021/06/27 07:27:50;;;;;;;6.60;5.88;;;;;;;21.16;63.09;100050.78;5025987;28;20123;-77
2021/06/27 07:30:17;;;;;;;6.82;5.75;;;;;;;21.20;62.87;100051.31;5029681;28;20104;-72
2021/06/27 07:32:45;;;;;;;8.40;5.40;;;;;;;21.29;62.85;100050.28;5018762;28;20058;-77
2021/06/27 07:35:12;;;;;;;8.27;5.47;;;;;;;21.40;63.38;100053.69;5017871;28;20052;-77
2021/06/27 07:37:43;;;;;;;;;;;;;;;21.49;61.24;100044.56;5019434;28;20077;-76
2021/06/27 07:40:11;;;;;;;5.35;4.78;;;;;;;21.62;60.90;100049.47;5018159;28;19944;-78
2021/06/27 07:42:38;;;;;;;7.65;4.88;;;;;;;21.69;60.80;100044.25;5019153;28;20141;-78
2021/06/27 07:45:06;;;;;;;7.60;5.32;;;;;;;21.65;59.78;100032.00;5018163;28;20104;-76
2021/06/27 07:47:33;;;;;;;7.43;5.22;;;;;;;21.73;60.53;100048.31;5019030;28;20054;-75
2021/06/27 07:49:59;;;;;;;8.05;5.00;;;;;;;21.83;58.62;100056.28;5021406;28;20065;-75
2021/06/27 07:52:26;;;;;;;6.35;5.57;;;;;;;21.84;60.38;100058.84;5020015;28;20424;-78
2021/06/27 07:54:53;;;;;;;6.30;5.70;;;;;;;22.02;59.31;100052.41;5019513;28;20049;-79
2021/06/27 07:57:22;;;;;;;6.90;5.28;;;;;;;21.92;59.37;100043.56;5029064;28;20092;-77
2021/06/27 07:59:48;;;;;;;8.30;5.72;;;;;;;21.95;59.67;100037.81;5031094;28;20054;-76
2021/06/27 08:02:15;;;;;;;8.05;5.72;;;;;;;22.11;59.30;100054.06;5018659;28;20359;-76
2021/06/27 08:04:42;;;;;;;7.68;5.25;;;;;;;22.08;60.08;100049.00;5020027;28;20128;-77
2021/06/27 08:07:08;;;;;;;6.80;5.40;;;;;;;22.25;58.99;100057.09;5027382;28;20054;-77
2021/06/27 08:09:35;;;;;;;6.47;5.20;;;;;;;22.34;59.10;100056.06;5037433;28;20057;-77
2021/06/27 08:12:03;;;;;;;7.75;5.80;;;;;;;22.42;60.24;100055.19;5036848;28;20064;-77
2021/06/27 08:14:30;;;;;;;8.52;5.60;;;;;;;22.47;60.82;100054.66;5033924;28;20060;-77
2021/06/27 08:16:56;;;;;;;7.47;5.78;;;;;;;22.54;59.38;100058.41;5037034;28;20049;-74
2021/06/27 08:19:23;;;;;;;12.32;5.63;;;;;;;22.63;59.53;100062.81;5034592;28;20089;-76
2021/06/27 08:21:50;;;;;;;7.15;5.40;;;;;;;22.74;59.34;100068.88;5018247;28;20111;-75
2021/06/27 08:24:17;;;;;;;7.57;5.40;;;;;;;22.68;59.24;100061.44;5017619;28;20049;-71
2021/06/27 08:26:44;;;;;;;8.32;6.10;;;;;;;22.75;59.31;100049.69;5018274;28;20054;-73
2021/06/27 08:29:11;;;;;;;7.20;5.43;;;;;;;22.87;58.98;100060.19;5018247;28;20061;-79
2021/06/27 08:31:37;;;;;;;7.15;5.78;;;;;;;22.91;59.53;100053.34;5001398;28;20448;-75
2021/06/27 08:34:05;;;;;;;11.77;6.30;;;;;;;22.87;60.10;100057.47;5020631;28;20388;-77
2021/06/27 08:36:32;;;;;;;8.70;5.22;;;;;;;22.86;59.88;100051.16;5020510;28;20057;-75
2021/06/27 08:38:59;;;;;;;8.35;5.70;;;;;;;22.91;59.99;100054.19;5018920;28;20050;-73
2021/06/27 08:41:26;;;;;;;11.35;5.82;;;;;;;22.87;61.72;100043.84;5018890;28;20054;-72
2021/06/27 08:43:53;;;;;;;10.18;6.13;;;;;;;22.87;59.59;100031.06;5018248;28;20056;-76
2021/06/27 08:46:21;;;;;;;6.85;5.68;;;;;;;22.98;59.20;100037.16;5026489;28;20054;-71
2021/06/27 08:48:48;;;;;;;11.40;5.88;;;;;;;22.98;59.64;100034.44;5022269;28;20045;-73
2021/06/27 08:51:15;;;;;;;8.45;6.22;;;;;;;23.00;59.22;100029.66;5023009;28;20053;-73
2021/06/27 08:53:42;;;;;;;9.45;6.70;;;;;;;23.08;59.18;100028.78;5005201;28;20427;-72
2021/06/27 08:56:11;;;;;;;8.35;6.35;;;;;;;23.11;58.87;100023.81;5025249;28;20103;-75
2021/06/27 08:58:43;;;;;;;8.95;5.82;;;;;;;23.15;60.13;100025.13;5027491;28;20053;-72
2021/06/27 09:01:17;;;;;;;11.98;6.20;;;;;;;23.26;58.78;100018.41;5027172;28;20052;-72
2021/06/27 09:03:45;;;;;;;9.55;5.32;;;;;;;23.29;60.04;100019.94;5024455;28;20049;-72
2021/06/27 09:06:40;;;;;;;8.13;6.13;;;;;;;23.30;58.20;100014.34;5024905;28;20107;-72
2021/06/27 09:09:17;;;;;;;9.02;5.88;;;;;;;23.30;60.03;100002.59;5022756;28;20053;-75
2021/06/27 09:12:02;;;;;;;8.07;5.90;;;;;;;23.48;60.12;99998.72;5017318;28;20050;-74
2021/06/27 09:14:35;;;;;;;12.68;5.65;;;;;;;23.69;60.41;100011.69;5016598;28;20058;-77
2021/06/27 09:17:24;;;;;;;10.38;6.50;;;;;;;23.79;61.35;100008.69;5015926;28;20482;-74
2021/06/27 09:19:59;;;;;;;11.68;7.38;;;;;;;23.93;59.55;100010.59;5023047;28;20320;-75
2021/06/27 09:22:49;;;;;;;8.85;6.45;;;;;;;23.97;58.90;100003.72;5036617;28;20445;-74
2021/06/27 09:25:21;;;;;;;9.77;7.03;;;;;;;23.95;58.35;99984.00;5036724;28;20049;-75
2021/06/27 09:28:01;;;;;;;6.63;5.55;;;;;;;24.02;58.82;100000.44;5036876;28;20054;-77
2021/06/27 09:30:29;;;;;;;6.72;6.13;;;;;;;24.10;59.62;99985.91;5036532;28;20179;-73
2021/06/27 09:33:06;;;;;;;9.93;6.30;;;;;;;24.11;60.76;99983.00;5035477;28;20080;-83
2021/06/27 09:35:37;;;;;;;8.57;6.40;;;;;;;24.09;60.77;99970.59;5035519;28;20041;-75
2021/06/27 09:38:25;;;;;;;15.82;6.13;;;;;;;24.11;60.73;99982.16;5036342;28;20046;-75
2021/06/27 09:40:55;;;;;;;10.60;6.88;;;;;;;24.23;59.26;99980.66;5036297;28;20053;-76
2021/06/27 09:43:22;;;;;;;;;;;;;;;24.31;59.18;99967.97;5036563;28;20054;-77
2021/06/27 09:45:56;;;;;;;7.35;6.38;;;;;;;24.27;59.51;99960.16;5036337;28;20057;-72
2021/06/27 09:48:25;;;;;;;9.77;6.20;;;;;;;24.43;58.00;99977.34;5036467;28;20145;-73
2021/06/27 09:50:53;;;;;;;8.93;6.07;;;;;;;24.38;59.72;99964.28;5036643;28;20119;-73
2021/06/27 09:53:30;;;;;;;9.88;6.40;;;;;;;24.48;58.35;99965.88;5036067;28;20103;-74
2021/06/27 09:55:58;;;;;;;8.65;6.80;;;;;;;24.66;56.26;99962.72;5032676;28;20403;-71
2021/06/27 09:58:26;;;;;;;9.50;6.45;;;;;;;24.75;56.47;99961.59;5019250;28;20057;-73
2021/06/27 10:00:53;;;;;;;11.13;6.68;;;;;;;24.78;56.82;99946.72;5020145;28;20120;-74
2021/06/27 10:03:20;;;;;;;8.48;5.93;;;;;;;24.97;56.58;99953.47;5017961;28;20050;-77
2021/06/27 10:05:47;;;;;;;10.35;6.25;;;;;;;25.08;55.94;99950.22;5017831;28;20084;-72
2021/06/27 10:08:27;;;;;;;6.68;5.97;;;;;;;25.36;56.79;99956.78;5018145;28;20058;-77
2021/06/27 10:11:13;;;;;;;8.32;6.10;;;;;;;25.50;55.38;99958.56;5016528;28;20127;-77
2021/06/27 10:13:42;;;;;;;8.15;5.97;;;;;;;25.45;54.50;99952.03;5014666;28;20054;-75
2021/06/27 10:16:16;;;;;;;9.45;6.45;;;;;;;25.45;55.09;99939.19;5016192;28;20050;-69
2021/06/27 10:18:43;;;;;;;7.05;6.10;;;;;;;25.62;55.60;99941.69;5014981;28;20050;-76
2021/06/27 10:21:10;;;;;;;10.48;6.50;;;;;;;25.85;54.99;99949.63;5032525;28;20054;-73
2021/06/27 10:23:39;;;;;;;8.90;6.10;;;;;;;25.87;54.61;99949.44;5035607;28;20045;-72
2021/06/27 10:26:05;;;;;;;8.48;5.47;;;;;;;25.94;54.98;99944.00;5034336;28;20386;-72
2021/06/27 10:28:35;;;;;;;6.72;6.05;;;;;;;26.03;54.58;99945.50;5035670;28;20060;-73
2021/06/27 10:31:02;;;;;;;8.68;5.82;;;;;;;26.07;52.56;99949.53;5027580;28;20108;-73
2021/06/27 10:33:32;;;;;;;9.40;6.22;;;;;;;26.31;53.23;99947.41;5015775;28;20133;-77
2021/06/27 10:36:00;;;;;;;6.45;5.60;;;;;;;26.25;53.58;99940.00;4998381;28;20049;-72
2021/06/27 10:38:30;;;;;;;7.28;5.95;;;;;;;26.43;52.54;99943.00;5015772;28;20096;-69
2021/06/27 10:40:59;;;;;;;6.65;5.85;;;;;;;26.61;51.21;99947.09;5015410;28;20053;-71
2021/06/27 10:43:57;;;;;;;8.73;5.05;;;;;;;26.83;49.29;99949.69;5015478;28;20049;-72
2021/06/27 10:46:42;;;;;;;5.75;5.00;;;;;;;26.76;50.54;99944.19;5015628;28;20123;-73
2021/06/27 10:49:33;;;;;;;12.25;5.28;;;;;;;26.81;51.15;99947.13;5014464;28;20069;-73
2021/06/27 10:52:06;;;;;;;5.13;4.63;;;;;;;26.82;51.27;99940.66;5012266;28;20447;-76
2021/06/27 10:54:40;;;;;;;8.82;5.50;;;;;;;26.97;50.06;99942.38;5015550;28;20053;-77
2021/06/27 10:57:12;;;;;;;6.15;5.22;;;;;;;27.08;49.78;99943.66;5015909;28;20428;-79
2021/06/27 10:59:44;;;;;;;6.50;5.57;;;;;;;26.88;50.80;99940.84;5015932;28;20065;-76
2021/06/27 11:02:17;;;;;;;6.13;4.97;;;;;;;26.96;52.04;99933.31;5017566;28;20045;-79
2021/06/27 11:04:46;;;;;;;5.40;4.90;;;;;;;26.79;51.49;99916.41;5017496;28;20419;-82
2021/06/27 11:07:31;;;;;;;6.40;5.70;;;;;;;26.67;50.98;99931.72;5020658;28;20049;-80
2021/06/27 11:10:16;;;;;;;10.35;5.78;;;;;;;26.20;51.95;99934.25;5020778;28;20435;-80
2021/06/27 11:12:58;;;;;;;7.20;5.43;;;;;;;26.33;51.49;99942.56;5020010;28;20060;-79
2021/06/27 11:15:29;;;;;;;7.38;6.15;;;;;;;26.36;50.61;99933.09;5020178;28;20053;-78
2021/06/27 11:18:00;;;;;;;12.32;5.57;;;;;;;26.59;51.43;99927.31;5019999;28;20136;-75
2021/06/27 11:20:36;;;;;;;7.78;5.32;;;;;;;26.60;50.39;99931.72;5030243;28;20049;-73
2021/06/27 11:23:02;;;;;;;6.95;5.13;;;;;;;26.79;49.71;99940.22;5038952;28;20131;-74
2021/06/27 11:25:33;;;;;;;5.88;5.28;;;;;;;26.88;50.04;99932.63;5038777;28;20050;-72
2021/06/27 11:28:19;;;;;;;7.95;5.55;;;;;;;27.06;49.92;99934.81;5037966;28;20046;-73
2021/06/27 11:31:22;;;;;;;12.43;5.50;;;;;;;27.16;49.69;99932.50;5038646;28;20427;-73